Ellsworth, Illinois
Current Conditions -  °F | °C
As of 2:56 PM on Tuesday 21 Oct 2014 (Local Time) from KBMI Reporting Station
Clear Clear  
Wind Chill: 59°   Ceiling: Unl
Heat Index: 59°   Visibility: 10mi
Dew Point: 38°   Wind: 12mph
Humidity: 46%   Direction: 50°NE
Pressure: 30.16"   Gusts: NA
Location:  40.45°N, 88.72°W
Report Text: KBMI 211956Z 05010KT 10SM CLR 15/03 A3016 RMK AO2 T01500033 SLP214
Loading
Personal Weather Stations






























Interactive Weather Map
Tropical Storm Tracking
New forecast layout! Learn more

10-Day Weather Forecast

Advertisements
Track Severe Weather on mobile